الصفحة الرئيسية
METAR-TAF:

METAR-TAF

مطار :

مطار كوناكري الدولي

كوناكري, غينيا

دائرة عرض: 09-34N, خط طول: 013-37W, ارتفاع: 26 متر

مراقبة الطقس الحالي

تاريخ ووقت الإصدار 40 دقيقة قبل الساعة 09:00UTC
ريح 10 عقدة من الشمال
درجة الحرارة 29°درجة مئوية
الرطوبة 58%
ضغط 1010 hPa
الرؤية 10 كم أو أكثر
الغيوم لا تقل 1500 م ولا وجود لمزنة ركامية السحاب الأسود

METAR: GUCY 150900Z 36010KT CAVOK 29/20 Q1010 NOSIG

زمن: 09:40 (09:40 UTC)

توقعات

تاريخ ووقت الإصدار 4ساعات و 40 دقيقة قبل الساعة 05:00UTC
التوقعات صالحة من15 الساعة 06 UTC إلى 16 الساعة 12 UTC
ريح 6 عقدة من الغرب/الجنوب الغربي
الرؤية 10 كم أو أكثر
غيوم قليلة على ارتفاع 1600 قدم
غيوم متفرقة على ارتفاع 11000 قدم
أصبح
من 15 الساعة 06 UTC إلى 15 الساعة 09 UTC
ريح 3 عقدةمن اتجاهات متغيرة
غيوم قليلة على ارتفاع 1500 قدم
مؤقت
بين 15 و 11 UTC
الرؤية 10 كم أو أكثر
الغيوم لا تقل 1500 م ولا وجود لمزنة ركامية السحاب الأسود

TAF: GUCY 150500Z 1506/1612 24006KT 9999 FEW016 SCT110 BECMG 1506/1509 VRB03KT FEW015 TEMPO 15113/1518 CAVOK

أرصاد الطقس والتوقعات من أكثر من 4000 مطار (تقارير الطقس للمطار METAR والتنبؤ بالطقس بالمطارTAF).

المحطات المتاحة هي النقط الصفراء والحمراء على الخريطة.

حرك المؤشر فوق النقطة لمعرفة اسم المحطة.

ثم انقر لمعرفة أرصاد وتوقعات الطقس.

لتغيير الخارطة: اضغط على الأزرار الخضراء مع رمز الصليب الأسود للتكبير. على الزر الأخضر مع شرطة للتصغير، أو على الأسهم الخضراء للخرائط المجاورة.


METAR-TAF: